createdAt,value
2023-02-14T00:00:32.870Z,0.20
2023-02-14T00:02:59.983Z,0.30
2023-02-14T00:05:27.029Z,0.30
2023-02-14T00:07:54.065Z,0.30
2023-02-14T00:10:21.065Z,0.30
2023-02-14T00:12:48.095Z,0.30
2023-02-14T00:15:24.970Z,0.30
2023-02-14T00:17:55.969Z,0.30
2023-02-14T00:20:23.120Z,0.30
2023-02-14T00:22:50.196Z,0.20
2023-02-14T00:25:17.237Z,0.20
2023-02-14T00:27:44.285Z,0.20
2023-02-14T00:30:11.846Z,0.20
2023-02-14T00:32:39.463Z,0.20
2023-02-14T00:35:06.823Z,0.20
2023-02-14T00:37:33.903Z,0.10
2023-02-14T00:40:00.984Z,0.20
2023-02-14T00:42:28.041Z,0.20
2023-02-14T00:44:55.098Z,0.20
2023-02-14T00:47:22.280Z,0.20
2023-02-14T00:49:49.295Z,0.20
2023-02-14T00:52:16.378Z,0.20
2023-02-14T00:54:43.438Z,0.20
2023-02-14T00:57:10.473Z,0.30
2023-02-14T00:59:37.596Z,0.30
2023-02-14T01:02:05.709Z,0.30
2023-02-14T01:04:32.994Z,0.30
2023-02-14T01:07:00.530Z,0.20
2023-02-14T01:09:27.579Z,0.20
2023-02-14T01:11:54.690Z,0.10
2023-02-14T01:14:21.710Z,0.20
2023-02-14T01:16:49.968Z,0.20
2023-02-14T01:19:17.086Z,0.20
2023-02-14T01:21:44.128Z,0.10
2023-02-14T01:24:11.162Z,0.20
2023-02-14T01:26:38.201Z,0.20
2023-02-14T01:29:05.279Z,0.20
2023-02-14T01:31:32.799Z,0.20
2023-02-14T01:33:59.933Z,0.20
2023-02-14T01:36:33.377Z,0.20
2023-02-14T01:39:02.198Z,0.20
2023-02-14T01:41:30.719Z,0.10
2023-02-14T01:43:59.016Z,0.10
2023-02-14T01:46:26.504Z,0.00
2023-02-14T01:48:54.432Z,0.00
2023-02-14T01:51:21.532Z,0.10
2023-02-14T01:53:48.586Z,0.10
2023-02-14T01:56:19.101Z,0.10
2023-02-14T01:58:46.227Z,0.00
2023-02-14T02:01:13.506Z,0.00
2023-02-14T02:03:49.169Z,0.00
2023-02-14T02:06:23.976Z,-0.10
2023-02-14T02:08:54.604Z,-0.10
2023-02-14T02:11:21.931Z,0.00
2023-02-14T02:13:48.991Z,0.00
2023-02-14T02:16:36.843Z,0.00
2023-02-14T02:19:30.359Z,-0.10
2023-02-14T02:22:01.443Z,-0.10
2023-02-14T02:24:28.526Z,-0.10
2023-02-14T02:26:56.169Z,-0.20
2023-02-14T02:29:42.000Z,-0.20
2023-02-14T02:32:12.133Z,-0.30
2023-02-14T02:34:58.133Z,-0.30
2023-02-14T02:37:43.024Z,-0.30
2023-02-14T02:40:10.068Z,-0.40
2023-02-14T02:42:42.899Z,-0.30
2023-02-14T02:45:22.089Z,-0.30
2023-02-14T02:47:58.109Z,-0.30
2023-02-14T02:50:43.867Z,-0.30
2023-02-14T02:53:17.021Z,-0.30
2023-02-14T02:56:22.690Z,-0.30
2023-02-14T02:58:54.556Z,-0.30
2023-02-14T03:01:23.000Z,-0.40
2023-02-14T03:04:10.388Z,-0.40
2023-02-14T03:06:37.441Z,-0.40
2023-02-14T03:09:13.587Z,-0.30
2023-02-14T03:11:42.271Z,-0.40
2023-02-14T03:14:19.539Z,-0.40
2023-02-14T03:16:56.194Z,-0.40
2023-02-14T03:19:29.804Z,-0.40
2023-02-14T03:21:59.147Z,-0.40
2023-02-14T03:24:28.218Z,-0.30
2023-02-14T03:27:10.544Z,-0.40
2023-02-14T03:29:37.679Z,-0.40
2023-02-14T03:32:11.141Z,-0.50
2023-02-14T03:34:40.966Z,-0.50
2023-02-14T03:37:17.214Z,-0.50
2023-02-14T03:39:50.466Z,-0.50
2023-02-14T03:42:22.351Z,-0.40
2023-02-14T03:44:49.507Z,-0.40
2023-02-14T03:47:17.469Z,-0.40
2023-02-14T03:49:47.592Z,-0.40
2023-02-14T03:52:15.664Z,-0.50
2023-02-14T03:54:42.736Z,-0.50
2023-02-14T03:57:12.924Z,-0.40
2023-02-14T03:59:40.020Z,-0.50
2023-02-14T04:02:07.910Z,-0.50
2023-02-14T04:04:36.125Z,-0.50
2023-02-14T04:07:10.305Z,-0.50
2023-02-14T04:09:38.349Z,-0.50
2023-02-14T04:12:05.472Z,-0.50
2023-02-14T04:14:32.561Z,-0.60
2023-02-14T04:17:18.344Z,-0.60
2023-02-14T04:19:45.361Z,-0.70
2023-02-14T04:22:12.415Z,-0.70
2023-02-14T04:24:42.487Z,-0.70
2023-02-14T04:27:12.564Z,-0.70
2023-02-14T04:29:43.590Z,-0.70
2023-02-14T04:32:11.608Z,-0.70
2023-02-14T04:34:38.835Z,-0.70
2023-02-14T04:37:06.165Z,-0.70
2023-02-14T04:39:33.246Z,-0.60
2023-02-14T04:42:00.364Z,-0.70
2023-02-14T04:44:28.455Z,-0.60
2023-02-14T04:46:55.533Z,-0.60
2023-02-14T04:49:22.678Z,-0.60
2023-02-14T04:51:49.733Z,-0.60
2023-02-14T04:54:16.825Z,-0.50
2023-02-14T04:56:43.903Z,-0.50
2023-02-14T04:59:14.676Z,-0.50
2023-02-14T05:01:41.857Z,-0.50
2023-02-14T05:04:09.019Z,-0.40
2023-02-14T05:06:36.167Z,-0.50
2023-02-14T05:09:03.325Z,-0.40
2023-02-14T05:11:30.466Z,-0.40
2023-02-14T05:13:57.510Z,-0.40
2023-02-14T05:16:24.663Z,-0.50
2023-02-14T05:18:51.862Z,-0.50
2023-02-14T05:21:18.851Z,-0.50
2023-02-14T05:23:45.903Z,-0.50
2023-02-14T05:26:12.945Z,-0.50
2023-02-14T05:28:43.185Z,-0.60
2023-02-14T05:31:10.424Z,-0.60
2023-02-14T05:33:37.589Z,-0.60
2023-02-14T05:36:04.783Z,-0.60
2023-02-14T05:38:33.387Z,-0.60
2023-02-14T05:41:01.196Z,-0.60
2023-02-14T05:43:30.158Z,-0.60
2023-02-14T05:45:57.470Z,-0.60
2023-02-14T05:48:24.691Z,-0.60
2023-02-14T05:50:51.818Z,-0.50
2023-02-14T05:53:18.907Z,-0.60
2023-02-14T05:55:46.081Z,-0.60
2023-02-14T05:58:13.320Z,-0.60
2023-02-14T06:00:41.298Z,-0.60
2023-02-14T06:03:08.702Z,-0.60
2023-02-14T06:05:35.778Z,-0.60
2023-02-14T06:08:02.844Z,-0.60
2023-02-14T06:10:30.045Z,-0.60
2023-02-14T06:12:57.135Z,-0.60
2023-02-14T06:15:24.216Z,-0.60
2023-02-14T06:17:52.051Z,-0.50
2023-02-14T06:20:19.351Z,-0.50
2023-02-14T06:22:46.374Z,-0.50
2023-02-14T06:25:13.523Z,-0.60
2023-02-14T06:27:40.608Z,-0.60
2023-02-14T06:30:08.060Z,-0.60
2023-02-14T06:32:35.180Z,-0.60
2023-02-14T06:35:03.388Z,-0.60
2023-02-14T06:37:30.474Z,-0.60
2023-02-14T06:39:57.630Z,-0.60
2023-02-14T06:42:24.881Z,-0.60
2023-02-14T06:44:52.104Z,-0.50
2023-02-14T06:47:19.267Z,-0.50
2023-02-14T06:49:46.364Z,-0.50
2023-02-14T06:52:13.626Z,-0.50
2023-02-14T06:54:40.772Z,-0.50
2023-02-14T06:57:07.810Z,-0.50
2023-02-14T06:59:34.807Z,-0.60
2023-02-14T07:02:01.990Z,-0.50
2023-02-14T07:04:29.082Z,-0.60
2023-02-14T07:07:42.302Z,-0.60
2023-02-14T07:10:09.445Z,-0.60
2023-02-14T07:12:39.424Z,-0.60
2023-02-14T07:18:36.212Z,-0.50
2023-02-14T07:21:03.541Z,-0.50
2023-02-14T07:24:16.613Z,-0.50
2023-02-14T07:26:43.669Z,-0.50
2023-02-14T07:29:10.712Z,-0.60
2023-02-14T07:31:37.873Z,-0.60
2023-02-14T07:34:05.127Z,-0.50
2023-02-14T07:36:32.249Z,-0.50
2023-02-14T07:38:59.267Z,-0.40
2023-02-14T07:41:26.922Z,-0.40
2023-02-14T07:43:54.023Z,-0.30
2023-02-14T07:46:21.254Z,-0.30
2023-02-14T07:48:48.801Z,-0.20
2023-02-14T07:51:15.918Z,-0.20
2023-02-14T07:53:42.967Z,-0.20
2023-02-14T07:56:10.044Z,-0.10
2023-02-14T07:58:37.070Z,-0.10
2023-02-14T08:01:04.288Z,0.00
2023-02-14T08:03:31.283Z,0.00
2023-02-14T08:05:58.383Z,0.00
2023-02-14T08:08:26.003Z,0.10
2023-02-14T08:10:53.140Z,0.10
2023-02-14T08:13:20.194Z,0.10
2023-02-14T08:16:05.960Z,0.10
2023-02-14T08:18:34.186Z,0.20
2023-02-14T08:21:01.771Z,0.20
2023-02-14T08:23:29.312Z,0.20
2023-02-14T08:25:56.426Z,0.30
2023-02-14T08:28:23.457Z,0.30
2023-02-14T08:30:50.769Z,0.30
2023-02-14T08:33:18.066Z,0.40
2023-02-14T08:35:46.429Z,0.40
2023-02-14T08:38:13.620Z,0.40
2023-02-14T08:40:41.497Z,0.50
2023-02-14T08:43:08.632Z,0.50
2023-02-14T08:45:36.166Z,0.50
2023-02-14T08:48:03.827Z,0.50
2023-02-14T08:50:30.908Z,0.60
2023-02-14T08:52:58.020Z,0.60
2023-02-14T08:55:25.046Z,0.70
2023-02-14T08:57:52.185Z,0.70
2023-02-14T09:00:19.503Z,0.70
2023-02-14T09:02:49.664Z,0.80
2023-02-14T09:05:16.833Z,0.80
2023-02-14T09:07:43.873Z,0.90
2023-02-14T09:10:11.086Z,0.90
2023-02-14T09:12:41.618Z,1.00
2023-02-14T09:15:09.265Z,1.00
2023-02-14T09:17:36.822Z,1.00
2023-02-14T09:20:04.703Z,1.10
2023-02-14T09:22:31.828Z,1.10
2023-02-14T09:25:00.163Z,1.20
2023-02-14T09:27:27.220Z,1.30
2023-02-14T09:29:54.440Z,1.40
2023-02-14T09:32:21.626Z,1.50
2023-02-14T09:34:49.327Z,1.50
2023-02-14T09:37:16.404Z,1.50
2023-02-14T09:39:43.455Z,1.60
2023-02-14T09:42:16.438Z,1.60
2023-02-14T09:44:44.068Z,1.70
2023-02-14T09:47:29.879Z,1.80
2023-02-14T09:49:56.978Z,1.90
2023-02-14T09:52:26.726Z,2.00
2023-02-14T09:54:55.098Z,2.00
2023-02-14T09:57:24.779Z,2.00
2023-02-14T09:59:53.609Z,2.00
2023-02-14T10:02:24.410Z,2.00
2023-02-14T10:05:06.585Z,2.00
2023-02-14T10:07:36.796Z,2.10
2023-02-14T10:10:16.919Z,2.10
2023-02-14T10:12:45.887Z,2.20
2023-02-14T10:15:20.211Z,2.20
2023-02-14T10:17:48.366Z,2.20
2023-02-14T10:20:21.301Z,2.30
2023-02-14T10:22:55.141Z,2.20
2023-02-14T10:25:28.984Z,2.30
2023-02-14T10:27:56.409Z,2.30
2023-02-14T10:30:23.852Z,2.40
2023-02-14T10:33:10.971Z,2.40
2023-02-14T10:35:47.500Z,2.40
2023-02-14T10:38:23.730Z,2.40
2023-02-14T10:41:09.710Z,2.40
2023-02-14T10:43:36.840Z,2.50
2023-02-14T10:46:13.569Z,2.50
2023-02-14T10:48:45.356Z,2.50
2023-02-14T10:51:18.199Z,2.50
2023-02-14T10:54:00.274Z,2.60
2023-02-14T10:56:46.646Z,2.60
2023-02-14T10:59:18.114Z,2.70
2023-02-14T11:01:45.483Z,2.70
2023-02-14T11:04:14.683Z,2.70
2023-02-14T11:06:41.798Z,2.70
2023-02-14T11:09:09.798Z,2.80
2023-02-14T11:11:55.847Z,2.80
2023-02-14T11:14:31.510Z,2.80
2023-02-14T11:16:59.152Z,2.80
2023-02-14T11:19:30.497Z,2.80
2023-02-14T11:21:58.331Z,2.90
2023-02-14T11:24:32.602Z,3.00
2023-02-14T11:27:01.090Z,3.00
2023-02-14T11:29:32.182Z,3.10
2023-02-14T11:32:07.038Z,3.10
2023-02-14T11:34:36.562Z,3.20
2023-02-14T11:37:04.089Z,3.20
2023-02-14T11:39:37.040Z,3.30
2023-02-14T11:42:04.585Z,3.30
2023-02-14T11:44:33.020Z,3.40
2023-02-14T11:47:19.022Z,3.40
2023-02-14T11:49:56.329Z,3.40
2023-02-14T11:55:58.383Z,3.40
2023-02-14T11:58:30.373Z,3.50
2023-02-14T12:00:57.757Z,3.50
2023-02-14T12:03:25.119Z,3.50
2023-02-14T12:05:57.462Z,3.60
2023-02-14T12:08:25.105Z,3.60
2023-02-14T12:11:05.511Z,3.60
2023-02-14T12:13:32.774Z,3.70
2023-02-14T12:16:00.390Z,3.70
2023-02-14T12:18:27.745Z,3.70
2023-02-14T12:21:07.033Z,3.70
2023-02-14T12:24:01.416Z,3.80
2023-02-14T12:26:58.914Z,3.80
2023-02-14T12:29:29.116Z,3.80
2023-02-14T12:31:57.217Z,3.80
2023-02-14T12:34:25.487Z,3.90
2023-02-14T12:36:52.685Z,4.00
2023-02-14T12:39:26.037Z,4.00
2023-02-14T12:41:59.992Z,4.00
2023-02-14T12:44:36.894Z,4.10
2023-02-14T12:47:08.270Z,4.10
2023-02-14T12:49:47.591Z,4.20
2023-02-14T12:52:20.818Z,4.30
2023-02-14T12:54:47.898Z,4.30
2023-02-14T12:57:27.270Z,4.30
2023-02-14T12:59:54.302Z,4.30
2023-02-14T13:02:35.731Z,4.40
2023-02-14T13:05:21.815Z,4.40
2023-02-14T13:07:55.692Z,4.40
2023-02-14T13:10:39.783Z,4.50
2023-02-14T13:13:09.894Z,4.50
2023-02-14T13:15:42.577Z,4.60
2023-02-14T13:18:29.944Z,4.60
2023-02-14T13:20:57.509Z,4.70
2023-02-14T13:23:29.886Z,4.70
2023-02-14T13:26:26.433Z,4.70
2023-02-14T13:28:58.245Z,4.70
2023-02-14T13:31:26.282Z,4.70
2023-02-14T13:34:22.789Z,4.70
2023-02-14T13:36:49.897Z,4.80
2023-02-14T13:39:38.728Z,4.80
2023-02-14T13:42:06.829Z,4.80
2023-02-14T13:44:48.077Z,4.80
2023-02-14T13:47:24.721Z,4.80
2023-02-14T13:49:51.884Z,4.80
2023-02-14T13:52:37.866Z,4.90
2023-02-14T13:55:06.565Z,4.90
2023-02-14T13:57:37.032Z,4.90
2023-02-14T14:00:16.247Z,5.00
2023-02-14T14:02:44.697Z,5.00
2023-02-14T14:05:30.153Z,4.90
2023-02-14T14:08:16.125Z,5.00
2023-02-14T14:10:45.835Z,5.00
2023-02-14T14:13:31.828Z,5.00
2023-02-14T14:16:17.674Z,4.90
2023-02-14T14:18:44.754Z,4.90
2023-02-14T14:21:16.349Z,4.90
2023-02-14T14:23:43.547Z,4.90
2023-02-14T14:26:29.498Z,4.90
2023-02-14T14:28:56.534Z,4.90
2023-02-14T14:31:23.680Z,4.80
2023-02-14T14:33:57.272Z,4.70
2023-02-14T14:36:24.619Z,4.70
2023-02-14T14:38:53.411Z,4.60
2023-02-14T14:41:29.674Z,4.60
2023-02-14T14:43:56.806Z,4.50
2023-02-14T14:46:23.924Z,4.50
2023-02-14T14:48:51.509Z,4.40
2023-02-14T14:51:20.048Z,4.30
2023-02-14T14:53:48.711Z,4.20
2023-02-14T14:56:23.184Z,4.20
2023-02-14T14:58:50.421Z,4.20
2023-02-14T15:01:29.671Z,4.10
2023-02-14T15:04:08.357Z,4.10
2023-02-14T15:06:36.485Z,4.10
2023-02-14T15:09:23.906Z,4.00
2023-02-14T15:12:11.458Z,4.00
2023-02-14T15:14:39.453Z,4.00
2023-02-14T15:17:07.099Z,4.00
2023-02-14T15:19:38.616Z,4.00
2023-02-14T15:22:29.702Z,4.00
2023-02-14T15:24:57.357Z,4.00
2023-02-14T15:27:24.929Z,4.00
2023-02-14T15:30:00.966Z,4.00
2023-02-14T15:32:30.041Z,4.00
2023-02-14T15:34:57.185Z,3.90
2023-02-14T15:37:24.401Z,3.90
2023-02-14T15:39:52.479Z,3.90
2023-02-14T15:42:35.857Z,3.80
2023-02-14T15:45:22.700Z,3.80
2023-02-14T15:47:51.212Z,3.70
2023-02-14T15:50:19.226Z,3.70
2023-02-14T15:52:46.388Z,3.60
2023-02-14T15:55:15.900Z,3.60
2023-02-14T15:57:43.765Z,3.60
2023-02-14T16:00:22.998Z,3.50
2023-02-14T16:02:51.409Z,3.50
2023-02-14T16:05:19.446Z,3.40
2023-02-14T16:08:05.220Z,3.40
2023-02-14T16:10:33.070Z,3.30
2023-02-14T16:13:01.268Z,3.30
2023-02-14T16:15:34.990Z,3.20
2023-02-14T16:18:07.636Z,3.10
2023-02-14T16:20:35.069Z,3.00
2023-02-14T16:23:14.363Z,2.90
2023-02-14T16:25:41.518Z,2.90
2023-02-14T16:28:08.784Z,2.80
2023-02-14T16:30:36.242Z,2.80
2023-02-14T16:33:06.104Z,2.80
2023-02-14T16:35:33.492Z,2.70
2023-02-14T16:38:00.605Z,2.70
2023-02-14T16:40:27.627Z,2.60
2023-02-14T16:42:54.967Z,2.50
2023-02-14T16:45:22.162Z,2.40
2023-02-14T16:47:49.236Z,2.40
2023-02-14T16:50:16.387Z,2.30
2023-02-14T16:52:43.416Z,2.30
2023-02-14T16:55:15.188Z,2.30
2023-02-14T16:57:42.898Z,2.30
2023-02-14T17:00:11.656Z,2.20
2023-02-14T17:02:38.763Z,2.00
2023-02-14T17:05:06.011Z,1.90
2023-02-14T17:07:33.174Z,1.80
2023-02-14T17:10:01.662Z,1.80
2023-02-14T17:12:30.338Z,1.70
2023-02-14T17:14:58.068Z,1.70
2023-02-14T17:17:25.203Z,1.60
2023-02-14T17:19:52.956Z,1.60
2023-02-14T17:22:20.170Z,1.70
2023-02-14T17:24:47.177Z,1.70
2023-02-14T17:27:14.289Z,1.70
2023-02-14T17:29:41.796Z,1.60
2023-02-14T17:32:13.614Z,1.50
2023-02-14T17:34:41.094Z,1.40
2023-02-14T17:37:08.232Z,1.40
2023-02-14T17:39:35.295Z,1.40
2023-02-14T17:42:02.393Z,1.50
2023-02-14T17:44:32.377Z,1.50
2023-02-14T17:46:59.505Z,1.50
2023-02-14T17:49:27.578Z,1.60
2023-02-14T17:51:56.339Z,1.60
2023-02-14T17:54:23.610Z,1.60
2023-02-14T17:56:50.685Z,1.60
2023-02-14T17:59:18.680Z,1.60
2023-02-14T18:01:45.751Z,1.60
2023-02-14T18:04:12.844Z,1.50
2023-02-14T18:06:40.285Z,1.50
2023-02-14T18:09:07.410Z,1.40
2023-02-14T18:11:34.482Z,1.30
2023-02-14T18:14:01.721Z,1.20
2023-02-14T18:16:28.926Z,1.20
2023-02-14T18:18:56.044Z,1.10
2023-02-14T18:21:24.455Z,1.10
2023-02-14T18:23:51.959Z,1.00
2023-02-14T18:26:20.155Z,1.10
2023-02-14T18:28:47.214Z,1.20
2023-02-14T18:31:15.306Z,1.20
2023-02-14T18:33:42.631Z,1.10
2023-02-14T18:36:13.386Z,1.20
2023-02-14T18:38:40.989Z,1.20
2023-02-14T18:41:08.786Z,1.10
2023-02-14T18:43:36.089Z,1.10
2023-02-14T18:46:07.368Z,1.10
2023-02-14T18:48:34.585Z,1.10
2023-02-14T18:51:08.733Z,1.10
2023-02-14T18:53:36.385Z,1.10
2023-02-14T18:56:06.187Z,1.10
2023-02-14T18:58:33.686Z,1.00
2023-02-14T19:01:10.660Z,1.00
2023-02-14T19:03:38.256Z,1.00
2023-02-14T19:06:07.580Z,1.00
2023-02-14T19:08:34.926Z,1.10
2023-02-14T19:11:02.578Z,1.00
2023-02-14T19:13:29.796Z,1.00
2023-02-14T19:15:56.873Z,1.00
2023-02-14T19:18:25.738Z,1.00
2023-02-14T19:20:53.044Z,0.90
2023-02-14T19:23:20.214Z,0.90
2023-02-14T19:25:47.307Z,0.90
2023-02-14T19:28:14.401Z,0.90
2023-02-14T19:30:41.456Z,0.80
2023-02-14T19:33:08.563Z,0.80
2023-02-14T19:35:35.759Z,0.80
2023-02-14T19:38:03.485Z,0.80
2023-02-14T19:40:31.316Z,0.70
2023-02-14T19:42:58.443Z,0.70
2023-02-14T19:45:27.305Z,0.60
2023-02-14T19:47:54.355Z,0.60
2023-02-14T19:50:22.081Z,0.50
2023-02-14T19:52:49.276Z,0.40
2023-02-14T19:55:18.542Z,0.40
2023-02-14T19:57:45.651Z,0.30
2023-02-14T20:00:16.090Z,0.30
2023-02-14T20:02:47.937Z,0.30
2023-02-14T20:05:15.732Z,0.30
2023-02-14T20:07:43.380Z,0.30
2023-02-14T20:10:11.525Z,0.20
2023-02-14T20:12:38.651Z,0.20
2023-02-14T20:15:05.817Z,0.20
2023-02-14T20:17:32.880Z,0.20
2023-02-14T20:19:59.951Z,0.20
2023-02-14T20:22:27.050Z,0.20
2023-02-14T20:24:55.174Z,0.20
2023-02-14T20:27:24.541Z,0.30
2023-02-14T20:29:51.742Z,0.30
2023-02-14T20:32:18.807Z,0.30
2023-02-14T20:34:45.864Z,0.30
2023-02-14T20:37:12.944Z,0.30
2023-02-14T20:39:40.079Z,0.30
2023-02-14T20:42:08.492Z,0.30
2023-02-14T20:44:35.608Z,0.30
2023-02-14T20:47:03.949Z,0.30
2023-02-14T20:49:31.160Z,0.30
2023-02-14T20:51:58.314Z,0.20
2023-02-14T20:54:25.729Z,0.20
2023-02-14T20:56:52.861Z,0.20
2023-02-14T20:59:26.212Z,0.20
2023-02-14T21:01:53.846Z,0.20
2023-02-14T21:04:20.909Z,0.10
2023-02-14T21:06:49.025Z,0.10
2023-02-14T21:09:16.214Z,0.10
2023-02-14T21:11:43.251Z,0.10
2023-02-14T21:14:10.514Z,0.10
2023-02-14T21:16:37.578Z,0.10
2023-02-14T21:19:05.722Z,0.00
2023-02-14T21:21:34.669Z,0.10
2023-02-14T21:24:06.799Z,0.10
2023-02-14T21:26:33.977Z,0.20
2023-02-14T21:29:01.504Z,0.20
2023-02-14T21:31:28.699Z,0.20
2023-02-14T21:33:56.563Z,0.30
2023-02-14T21:36:24.271Z,0.30
2023-02-14T21:38:51.332Z,0.30
2023-02-14T21:41:19.058Z,0.30
2023-02-14T21:43:46.576Z,0.30
2023-02-14T21:46:14.523Z,0.30
2023-02-14T21:49:00.277Z,0.30
2023-02-14T21:51:30.414Z,0.30
2023-02-14T21:53:59.849Z,0.20
2023-02-14T21:56:26.965Z,0.20
2023-02-14T21:58:55.126Z,0.20
2023-02-14T22:01:23.464Z,0.20
2023-02-14T22:03:50.588Z,0.30
2023-02-14T22:06:17.646Z,0.30
2023-02-14T22:08:44.729Z,0.30
2023-02-14T22:11:12.746Z,0.30
2023-02-14T22:13:39.858Z,0.30
2023-02-14T22:16:07.800Z,0.30
2023-02-14T22:18:35.016Z,0.20
2023-02-14T22:21:11.844Z,0.20
2023-02-14T22:23:39.012Z,0.20
2023-02-14T22:26:15.155Z,0.20
2023-02-14T22:28:42.495Z,0.20
2023-02-14T22:31:09.741Z,0.20
2023-02-14T22:33:37.965Z,0.10
2023-02-14T22:36:05.697Z,0.10
2023-02-14T22:38:33.003Z,0.10
2023-02-14T22:41:07.405Z,0.10
2023-02-14T22:43:34.786Z,0.10
2023-02-14T22:46:05.779Z,0.10
2023-02-14T22:48:33.584Z,0.10
2023-02-14T22:51:30.190Z,0.10
2023-02-14T22:54:04.598Z,0.10
2023-02-14T22:56:34.359Z,0.10
2023-02-14T22:59:04.749Z,0.00
2023-02-14T23:01:33.140Z,0.00
2023-02-14T23:04:01.412Z,0.00
2023-02-14T23:06:28.949Z,0.00
2023-02-14T23:08:55.950Z,0.00
2023-02-14T23:11:23.889Z,0.10
2023-02-14T23:14:09.565Z,0.00
2023-02-14T23:16:56.260Z,0.00
2023-02-14T23:19:42.578Z,0.00
2023-02-14T23:22:20.410Z,-0.10
2023-02-14T23:24:47.765Z,-0.10
2023-02-14T23:27:14.949Z,-0.20
2023-02-14T23:29:41.937Z,-0.20
2023-02-14T23:32:08.998Z,-0.20
2023-02-14T23:34:37.152Z,-0.20
2023-02-14T23:37:04.423Z,-0.20
2023-02-14T23:39:36.673Z,-0.30
2023-02-14T23:42:04.287Z,-0.30
2023-02-14T23:44:31.408Z,-0.40
2023-02-14T23:46:58.941Z,-0.30
2023-02-14T23:49:26.114Z,-0.40
2023-02-14T23:51:53.832Z,-0.30
2023-02-14T23:54:21.332Z,-0.20
2023-02-14T23:56:48.559Z,-0.20
